createdAt,value
2023-02-22T00:01:02.066Z,5.68
2023-02-22T00:03:32.515Z,5.70
2023-02-22T00:06:02.606Z,5.72
2023-02-22T00:08:31.642Z,5.70
2023-02-22T00:11:02.981Z,5.67
2023-02-22T00:13:30.184Z,5.60
2023-02-22T00:15:58.140Z,5.55
2023-02-22T00:18:27.842Z,5.56
2023-02-22T00:21:01.672Z,5.53
2023-02-22T00:23:30.376Z,5.55
2023-02-22T00:25:58.285Z,5.55
2023-02-22T00:28:24.800Z,5.54
2023-02-22T00:30:52.216Z,5.52
2023-02-22T00:33:18.716Z,5.52
2023-02-22T00:35:45.994Z,5.46
2023-02-22T00:38:14.853Z,5.48
2023-02-22T00:40:41.756Z,5.46
2023-02-22T00:43:08.489Z,5.45
2023-02-22T00:45:36.201Z,5.45
2023-02-22T00:48:04.918Z,5.45
2023-02-22T00:50:32.691Z,5.44
2023-02-22T00:53:01.329Z,5.42
2023-02-22T00:55:31.739Z,5.39
2023-02-22T00:57:59.228Z,5.36
2023-02-22T01:00:33.407Z,5.40
2023-02-22T01:03:00.143Z,5.45
2023-02-22T01:05:29.452Z,5.41
2023-02-22T01:07:57.548Z,5.48
2023-02-22T01:10:26.329Z,5.42
2023-02-22T01:12:54.485Z,5.41
2023-02-22T01:15:23.293Z,5.39
2023-02-22T01:17:52.086Z,5.41
2023-02-22T01:20:19.550Z,5.43
2023-02-22T01:22:49.383Z,5.41
2023-02-22T01:25:19.031Z,5.43
2023-02-22T01:27:45.696Z,5.43
2023-02-22T01:30:14.690Z,5.35
2023-02-22T01:32:42.466Z,5.40
2023-02-22T01:35:14.289Z,5.43
2023-02-22T01:37:42.017Z,5.44
2023-02-22T01:40:10.543Z,5.42
2023-02-22T01:42:37.267Z,5.43
2023-02-22T01:45:34.755Z,5.39
2023-02-22T01:48:21.408Z,5.43
2023-02-22T01:50:59.461Z,5.46
2023-02-22T01:53:59.709Z,5.43
2023-02-22T01:56:29.022Z,5.40
2023-02-22T01:59:03.322Z,5.42
2023-02-22T02:01:30.302Z,5.41
2023-02-22T02:03:59.825Z,5.39
2023-02-22T02:06:31.154Z,5.36
2023-02-22T02:09:04.732Z,5.30
2023-02-22T02:11:32.436Z,5.26
2023-02-22T02:13:59.065Z,5.31
2023-02-22T02:16:37.423Z,5.33
2023-02-22T02:19:12.595Z,5.29
2023-02-22T02:22:09.629Z,5.30
2023-02-22T02:24:57.578Z,5.23
2023-02-22T02:27:27.355Z,5.21
2023-02-22T02:29:59.883Z,5.17
2023-02-22T02:32:32.354Z,5.14
2023-02-22T02:35:07.980Z,5.18
2023-02-22T02:37:37.489Z,5.15
2023-02-22T02:40:11.471Z,5.12
2023-02-22T02:43:01.161Z,5.11
2023-02-22T02:45:36.277Z,5.12
2023-02-22T02:48:07.001Z,5.08
2023-02-22T02:50:43.701Z,5.08
2023-02-22T02:53:11.140Z,5.06
2023-02-22T02:55:38.197Z,5.04
2023-02-22T02:58:07.063Z,5.03
2023-02-22T03:00:39.405Z,5.06
2023-02-22T03:03:24.225Z,5.05
2023-02-22T03:05:59.798Z,4.95
2023-02-22T03:08:40.271Z,4.90
2023-02-22T03:11:16.862Z,4.86
2023-02-22T03:14:11.318Z,4.80
2023-02-22T03:16:52.722Z,4.81
2023-02-22T03:19:32.157Z,4.75
2023-02-22T03:22:04.592Z,4.73
2023-02-22T03:24:37.312Z,4.74
2023-02-22T03:27:09.678Z,4.75
2023-02-22T03:29:42.691Z,4.81
2023-02-22T03:32:15.789Z,4.81
2023-02-22T03:35:14.938Z,4.72
2023-02-22T03:37:45.344Z,4.78
2023-02-22T03:40:16.967Z,4.83
2023-02-22T03:42:48.739Z,4.80
2023-02-22T03:45:19.181Z,4.76
2023-02-22T03:47:52.550Z,4.73
2023-02-22T03:50:25.272Z,4.78
2023-02-22T03:52:52.529Z,4.78
2023-02-22T03:55:19.308Z,4.79
2023-02-22T03:57:52.259Z,4.71
2023-02-22T04:00:25.387Z,4.67
2023-02-22T04:02:51.915Z,4.68
2023-02-22T04:05:18.707Z,4.75
2023-02-22T04:07:45.834Z,4.76
2023-02-22T04:10:15.113Z,4.78
2023-02-22T04:12:41.606Z,4.83
2023-02-22T04:15:09.563Z,4.86
2023-02-22T04:17:35.991Z,4.86
2023-02-22T04:20:03.472Z,4.86
2023-02-22T04:22:29.963Z,4.90
2023-02-22T04:24:56.478Z,4.89
2023-02-22T04:27:22.870Z,4.94
2023-02-22T04:29:49.391Z,4.97
2023-02-22T04:32:16.412Z,4.94
2023-02-22T04:34:42.831Z,4.92
2023-02-22T04:37:10.369Z,4.96
2023-02-22T04:39:36.917Z,4.93
2023-02-22T04:42:03.532Z,4.98
2023-02-22T04:44:30.014Z,4.96
2023-02-22T04:46:57.495Z,4.93
2023-02-22T04:49:24.224Z,4.94
2023-02-22T04:51:50.639Z,4.98
2023-02-22T04:54:18.311Z,5.03
2023-02-22T04:56:45.297Z,4.98
2023-02-22T04:59:11.750Z,5.01
2023-02-22T05:01:38.868Z,5.01
2023-02-22T05:04:07.060Z,4.98
2023-02-22T05:06:34.070Z,4.97
2023-02-22T05:09:00.520Z,4.94
2023-02-22T05:11:26.967Z,4.89
2023-02-22T05:13:53.403Z,4.87
2023-02-22T05:16:19.915Z,4.88
2023-02-22T05:18:46.557Z,4.88
2023-02-22T05:21:13.598Z,4.88
2023-02-22T05:23:40.167Z,4.86
2023-02-22T05:26:06.633Z,4.85
2023-02-22T05:28:33.117Z,4.84
2023-02-22T05:30:59.632Z,4.81
2023-02-22T05:33:26.117Z,4.74
2023-02-22T05:35:52.649Z,4.73
2023-02-22T05:38:19.109Z,4.73
2023-02-22T05:40:45.617Z,4.78
2023-02-22T05:43:12.086Z,4.80
2023-02-22T05:45:38.618Z,4.77
2023-02-22T05:48:05.329Z,4.76
2023-02-22T05:50:33.075Z,4.73
2023-02-22T05:53:00.152Z,4.72
2023-02-22T05:55:26.894Z,4.71
2023-02-22T05:57:53.932Z,4.72
2023-02-22T06:00:27.801Z,4.70
2023-02-22T06:02:59.537Z,4.68
2023-02-22T06:05:27.067Z,4.67
2023-02-22T06:07:53.886Z,4.63
2023-02-22T06:10:20.742Z,4.65
2023-02-22T06:12:48.262Z,4.68
2023-02-22T06:15:19.649Z,4.69
2023-02-22T06:17:46.816Z,4.69
2023-02-22T06:20:16.754Z,4.69
2023-02-22T06:22:45.543Z,4.66
2023-02-22T06:25:15.876Z,4.65
2023-02-22T06:27:42.305Z,4.66
2023-02-22T06:30:13.143Z,4.68
2023-02-22T06:32:39.902Z,4.64
2023-02-22T06:35:07.084Z,4.62
2023-02-22T06:37:33.558Z,4.62
2023-02-22T06:40:04.862Z,4.66
2023-02-22T06:42:31.941Z,4.63
2023-02-22T06:44:58.354Z,4.56
2023-02-22T06:47:24.781Z,4.50
2023-02-22T06:49:55.914Z,4.47
2023-02-22T06:52:23.072Z,4.45
2023-02-22T06:54:50.461Z,4.43
2023-02-22T06:57:17.967Z,4.47
2023-02-22T06:59:44.593Z,4.46
2023-02-22T07:02:14.704Z,4.49
2023-02-22T07:04:43.410Z,4.52
2023-02-22T07:07:10.382Z,4.55
2023-02-22T07:09:36.843Z,4.52
2023-02-22T07:12:03.579Z,4.51
2023-02-22T07:14:30.014Z,4.47
2023-02-22T07:16:56.431Z,4.41
2023-02-22T07:19:23.559Z,4.42
2023-02-22T07:21:50.796Z,4.50
2023-02-22T07:24:17.245Z,4.58
2023-02-22T07:26:43.730Z,4.60
2023-02-22T07:29:11.309Z,4.61
2023-02-22T07:31:38.737Z,4.69
2023-02-22T07:34:05.536Z,4.68
2023-02-22T07:36:32.044Z,4.72
2023-02-22T07:38:58.437Z,4.77
2023-02-22T07:41:25.670Z,4.80
2023-02-22T07:43:52.240Z,4.87
2023-02-22T07:46:18.763Z,4.91
2023-02-22T07:48:45.191Z,4.95
2023-02-22T07:51:15.725Z,4.95
2023-02-22T07:53:42.456Z,5.01
2023-02-22T07:56:08.934Z,5.06
2023-02-22T07:58:35.503Z,5.09
2023-02-22T08:01:05.045Z,5.12
2023-02-22T08:03:36.413Z,5.07
2023-02-22T08:06:04.982Z,5.16
2023-02-22T08:08:31.701Z,5.26
2023-02-22T08:10:58.187Z,5.32
2023-02-22T08:13:24.632Z,5.38
2023-02-22T08:15:53.743Z,5.46
2023-02-22T08:18:21.715Z,5.53
2023-02-22T08:20:50.344Z,5.60
2023-02-22T08:23:17.973Z,5.68
2023-02-22T08:25:45.156Z,5.78
2023-02-22T08:28:15.155Z,5.87
2023-02-22T08:30:45.465Z,5.94
2023-02-22T08:33:15.835Z,6.04
2023-02-22T08:35:42.810Z,6.12
2023-02-22T08:38:17.487Z,6.18
2023-02-22T08:40:43.966Z,6.25
2023-02-22T08:43:10.452Z,6.34
2023-02-22T08:45:37.262Z,6.40
2023-02-22T08:48:04.000Z,6.53
2023-02-22T08:50:33.697Z,6.60
2023-02-22T08:53:02.350Z,6.66
2023-02-22T08:55:32.264Z,6.70
2023-02-22T08:58:01.366Z,6.83
2023-02-22T09:00:29.567Z,6.86
2023-02-22T09:02:56.158Z,6.99
2023-02-22T09:05:22.642Z,7.03
2023-02-22T09:07:49.207Z,7.05
2023-02-22T09:10:24.357Z,7.13
2023-02-22T09:12:58.330Z,7.16
2023-02-22T09:15:25.639Z,7.15
2023-02-22T09:17:53.137Z,7.19
2023-02-22T09:20:21.474Z,7.22
2023-02-22T09:22:49.249Z,7.37
2023-02-22T09:25:17.789Z,7.46
2023-02-22T09:27:47.894Z,7.53
2023-02-22T09:30:28.095Z,7.60
2023-02-22T09:33:00.239Z,7.53
2023-02-22T09:35:27.698Z,7.52
2023-02-22T09:37:59.530Z,7.65
2023-02-22T09:40:32.369Z,7.83
2023-02-22T09:43:14.226Z,7.96
2023-02-22T09:45:48.846Z,8.02
2023-02-22T09:48:22.181Z,7.99
2023-02-22T09:50:52.822Z,7.95
2023-02-22T09:53:32.415Z,7.88
2023-02-22T09:56:04.586Z,8.01
2023-02-22T09:58:33.361Z,7.96
2023-02-22T10:01:27.174Z,8.02
2023-02-22T10:04:44.947Z,8.02
2023-02-22T10:07:30.833Z,8.05
2023-02-22T10:09:58.640Z,8.10
2023-02-22T10:12:27.903Z,8.08
2023-02-22T10:15:31.169Z,8.16
2023-02-22T10:18:13.569Z,8.13
2023-02-22T10:21:02.543Z,8.16
2023-02-22T10:24:02.192Z,8.35
2023-02-22T10:26:36.681Z,8.47
2023-02-22T10:29:39.951Z,8.50
2023-02-22T10:32:16.495Z,8.67
2023-02-22T10:34:48.566Z,8.68
2023-02-22T10:37:26.032Z,8.80
2023-02-22T10:40:17.457Z,8.88
2023-02-22T10:42:44.794Z,8.95
2023-02-22T10:45:21.742Z,8.87
2023-02-22T10:47:49.839Z,8.93
2023-02-22T10:50:16.705Z,9.06
2023-02-22T10:52:43.334Z,9.09
2023-02-22T10:55:15.969Z,9.19
2023-02-22T10:57:46.959Z,9.26
2023-02-22T11:00:14.283Z,9.25
2023-02-22T11:02:52.449Z,9.34
2023-02-22T11:05:37.241Z,9.48
2023-02-22T11:08:22.571Z,9.53
2023-02-22T11:10:53.223Z,9.61
2023-02-22T11:13:31.086Z,9.65
2023-02-22T11:16:17.598Z,9.64
2023-02-22T11:18:44.433Z,9.78
2023-02-22T11:21:13.886Z,9.84
2023-02-22T11:23:44.931Z,9.99
2023-02-22T11:26:14.462Z,10.03
2023-02-22T11:28:51.009Z,10.16
2023-02-22T11:31:24.266Z,10.12
2023-02-22T11:36:42.701Z,10.24
2023-02-22T11:39:26.903Z,10.39
2023-02-22T11:41:55.772Z,10.53
2023-02-22T11:44:29.529Z,10.57
2023-02-22T11:47:06.998Z,10.67
2023-02-22T11:49:39.856Z,10.66
2023-02-22T11:52:17.592Z,10.64
2023-02-22T11:54:53.460Z,10.86
2023-02-22T11:57:26.108Z,10.83
2023-02-22T12:00:16.091Z,10.79
2023-02-22T12:03:04.826Z,10.87
2023-02-22T12:05:59.405Z,10.94
2023-02-22T12:08:41.143Z,10.96
2023-02-22T12:11:13.851Z,11.01
2023-02-22T12:14:07.686Z,10.97
2023-02-22T12:16:57.868Z,10.98
2023-02-22T12:19:39.403Z,11.00
2023-02-22T12:22:12.134Z,10.95
2023-02-22T12:24:48.888Z,11.01
2023-02-22T12:27:31.581Z,11.10
2023-02-22T12:30:23.620Z,11.27
2023-02-22T12:32:59.045Z,11.28
2023-02-22T12:35:34.802Z,11.29
2023-02-22T12:38:16.519Z,11.47
2023-02-22T12:40:45.877Z,11.60
2023-02-22T12:43:26.986Z,11.58
2023-02-22T12:46:05.324Z,11.78
2023-02-22T12:48:51.814Z,11.82
2023-02-22T12:51:31.614Z,11.69
2023-02-22T12:54:19.043Z,11.74
2023-02-22T12:56:55.537Z,11.91
2023-02-22T12:59:48.923Z,12.05
2023-02-22T13:02:22.488Z,12.11
2023-02-22T13:04:49.150Z,11.98
2023-02-22T13:07:33.370Z,11.98
2023-02-22T13:10:06.579Z,11.98
2023-02-22T13:13:03.857Z,12.12
2023-02-22T13:15:40.781Z,12.15
2023-02-22T13:18:18.285Z,12.24
2023-02-22T13:20:57.284Z,12.26
2023-02-22T13:23:39.125Z,12.44
2023-02-22T13:26:22.071Z,12.65
2023-02-22T13:29:15.796Z,12.76
2023-02-22T13:31:45.230Z,12.78
2023-02-22T13:34:16.498Z,13.05
2023-02-22T13:36:58.170Z,12.98
2023-02-22T13:39:37.001Z,12.95
2023-02-22T13:42:25.115Z,12.91
2023-02-22T13:45:04.076Z,12.89
2023-02-22T13:48:00.888Z,12.75
2023-02-22T13:50:30.382Z,12.67
2023-02-22T13:52:58.106Z,12.65
2023-02-22T13:55:31.456Z,12.71
2023-02-22T13:58:16.411Z,12.85
2023-02-22T14:00:51.122Z,13.00
2023-02-22T14:03:35.915Z,13.14
2023-02-22T14:06:07.797Z,13.19
2023-02-22T14:08:34.172Z,13.13
2023-02-22T14:11:32.522Z,13.07
2023-02-22T14:14:00.910Z,13.09
2023-02-22T14:16:30.091Z,13.06
2023-02-22T14:19:13.229Z,13.04
2023-02-22T14:21:58.333Z,12.93
2023-02-22T14:24:24.957Z,12.98
2023-02-22T14:27:03.949Z,12.93
2023-02-22T14:29:31.078Z,12.94
2023-02-22T14:32:07.445Z,12.89
2023-02-22T14:34:44.281Z,12.78
2023-02-22T14:37:27.968Z,12.68
2023-02-22T14:39:57.763Z,12.74
2023-02-22T14:42:31.961Z,12.68
2023-02-22T14:45:20.197Z,12.63
2023-02-22T14:48:13.906Z,12.66
2023-02-22T14:50:40.326Z,12.70
2023-02-22T14:53:06.956Z,12.82
2023-02-22T14:55:41.072Z,12.83
2023-02-22T14:58:20.592Z,12.79
2023-02-22T15:00:56.864Z,12.73
2023-02-22T15:03:38.543Z,12.69
2023-02-22T15:06:15.739Z,12.69
2023-02-22T15:08:48.593Z,12.73
2023-02-22T15:11:32.442Z,12.77
2023-02-22T15:14:00.804Z,12.71
2023-02-22T15:16:31.659Z,12.67
2023-02-22T15:19:00.843Z,12.60
2023-02-22T15:21:29.705Z,12.54
2023-02-22T15:24:00.360Z,12.47
2023-02-22T15:26:35.218Z,12.37
2023-02-22T15:29:04.208Z,12.47
2023-02-22T15:31:36.219Z,12.52
2023-02-22T15:34:15.863Z,12.53
2023-02-22T15:36:44.672Z,12.61
2023-02-22T15:39:29.356Z,12.54
2023-02-22T15:42:23.036Z,12.48
2023-02-22T15:44:58.045Z,12.44
2023-02-22T15:47:27.501Z,12.51
2023-02-22T15:50:26.555Z,12.43
2023-02-22T15:53:01.808Z,12.50
2023-02-22T15:55:35.413Z,12.65
2023-02-22T15:58:10.872Z,12.57
2023-02-22T16:00:43.375Z,12.67
2023-02-22T16:03:13.364Z,12.62
2023-02-22T16:05:47.160Z,12.57
2023-02-22T16:08:26.712Z,12.51
2023-02-22T16:11:00.502Z,12.42
2023-02-22T16:13:32.772Z,12.41
2023-02-22T16:16:05.805Z,12.49
2023-02-22T16:18:36.249Z,12.47
2023-02-22T16:21:13.867Z,12.53
2023-02-22T16:23:49.461Z,12.41
2023-02-22T16:26:31.191Z,12.30
2023-02-22T16:28:59.342Z,12.26
2023-02-22T16:31:37.785Z,12.19
2023-02-22T16:34:06.697Z,12.09
2023-02-22T16:36:47.593Z,12.00
2023-02-22T16:39:22.388Z,12.02
2023-02-22T16:41:51.100Z,12.00
2023-02-22T16:44:17.779Z,11.91
2023-02-22T16:46:44.391Z,11.89
2023-02-22T16:49:12.342Z,11.91
2023-02-22T16:51:49.352Z,11.77
2023-02-22T16:54:23.936Z,11.71
2023-02-22T16:56:51.174Z,11.64
2023-02-22T16:59:18.335Z,11.61
2023-02-22T17:01:45.062Z,11.48
2023-02-22T17:04:22.185Z,11.49
2023-02-22T17:06:48.910Z,11.43
2023-02-22T17:09:15.708Z,11.39
2023-02-22T17:11:43.688Z,11.38
2023-02-22T17:14:16.195Z,11.33
2023-02-22T17:16:43.026Z,11.28
2023-02-22T17:19:16.808Z,11.24
2023-02-22T17:21:43.362Z,11.18
2023-02-22T17:24:14.809Z,11.12
2023-02-22T17:26:41.594Z,11.04
2023-02-22T17:29:08.173Z,10.96
2023-02-22T17:31:35.249Z,10.93
2023-02-22T17:34:04.492Z,10.90
2023-02-22T17:36:32.271Z,10.92
2023-02-22T17:38:59.573Z,10.93
2023-02-22T17:41:26.449Z,10.90
2023-02-22T17:43:54.317Z,10.87
2023-02-22T17:46:21.139Z,10.79
2023-02-22T17:48:50.578Z,10.75
2023-02-22T17:51:17.355Z,10.69
2023-02-22T17:53:43.844Z,10.69
2023-02-22T17:56:18.733Z,10.68
2023-02-22T17:58:47.072Z,10.71
2023-02-22T18:01:20.930Z,10.72
2023-02-22T18:03:47.673Z,10.69
2023-02-22T18:06:22.485Z,10.67
2023-02-22T18:08:55.791Z,10.67
2023-02-22T18:11:26.367Z,10.71
2023-02-22T18:13:55.419Z,10.77
2023-02-22T18:16:22.551Z,10.86
2023-02-22T18:18:49.730Z,10.83
2023-02-22T18:21:16.391Z,10.84
2023-02-22T18:23:44.815Z,10.85
2023-02-22T18:26:17.367Z,10.82
2023-02-22T18:28:44.548Z,10.81
2023-02-22T18:31:14.497Z,10.78
2023-02-22T18:33:46.625Z,10.75
2023-02-22T18:36:14.408Z,10.76
2023-02-22T18:38:43.133Z,10.76
2023-02-22T18:41:15.387Z,10.78
2023-02-22T18:43:42.258Z,10.86
2023-02-22T18:46:11.129Z,10.86
2023-02-22T18:48:38.615Z,10.86
2023-02-22T18:51:08.857Z,10.80
2023-02-22T18:53:37.082Z,10.79
2023-02-22T18:56:08.702Z,10.81
2023-02-22T18:58:35.946Z,10.84
2023-02-22T19:01:03.530Z,10.82
2023-02-22T19:03:30.368Z,10.77
2023-02-22T19:06:01.692Z,10.73
2023-02-22T19:08:28.530Z,10.69
2023-02-22T19:10:54.990Z,10.66
2023-02-22T19:13:21.431Z,10.60
2023-02-22T19:15:48.909Z,10.55
2023-02-22T19:18:15.395Z,10.52
2023-02-22T19:20:41.938Z,10.44
2023-02-22T19:23:10.459Z,10.41
2023-02-22T19:25:41.084Z,10.36
2023-02-22T19:28:07.605Z,10.34
2023-02-22T19:30:34.110Z,10.29
2023-02-22T19:33:04.263Z,10.27
2023-02-22T19:35:30.867Z,10.23
2023-02-22T19:37:58.131Z,10.19
2023-02-22T19:40:24.773Z,10.16
2023-02-22T19:42:51.999Z,10.13
2023-02-22T19:45:20.124Z,10.13
2023-02-22T19:47:47.466Z,10.10
2023-02-22T19:50:14.869Z,10.07
2023-02-22T19:52:41.775Z,10.06
2023-02-22T19:55:14.733Z,10.05
2023-02-22T19:57:43.262Z,10.04
2023-02-22T20:00:13.194Z,10.05
2023-02-22T20:02:40.770Z,10.03
2023-02-22T20:05:10.284Z,10.03
2023-02-22T20:07:38.325Z,10.00
2023-02-22T20:10:07.085Z,9.97
2023-02-22T20:12:33.910Z,9.98
2023-02-22T20:15:00.486Z,9.96
2023-02-22T20:17:27.590Z,9.96
2023-02-22T20:19:54.281Z,9.91
2023-02-22T20:22:21.900Z,9.91
2023-02-22T20:24:49.204Z,9.89
2023-02-22T20:27:16.430Z,9.89
2023-02-22T20:29:42.932Z,9.87
2023-02-22T20:32:12.128Z,9.86
2023-02-22T20:34:38.747Z,9.83
2023-02-22T20:37:05.214Z,9.82
2023-02-22T20:39:31.699Z,9.81
2023-02-22T20:42:00.609Z,9.80
2023-02-22T20:44:27.361Z,9.79
2023-02-22T20:46:53.862Z,9.78
2023-02-22T20:49:21.270Z,9.77
2023-02-22T20:51:48.348Z,9.77
2023-02-22T20:54:15.661Z,9.75
2023-02-22T20:56:44.583Z,9.75
2023-02-22T20:59:13.841Z,9.74
2023-02-22T21:01:40.817Z,9.75
2023-02-22T21:04:10.051Z,9.73
2023-02-22T21:06:38.892Z,9.73
2023-02-22T21:09:10.273Z,9.73
2023-02-22T21:11:38.964Z,9.71
2023-02-22T21:14:05.554Z,9.71
2023-02-22T21:16:35.405Z,9.69
2023-02-22T21:19:04.879Z,9.68
2023-02-22T21:21:31.950Z,9.67
2023-02-22T21:24:01.681Z,9.66
2023-02-22T21:26:31.358Z,9.64
2023-02-22T21:29:00.836Z,9.62
2023-02-22T21:31:28.132Z,9.60
2023-02-22T21:33:56.147Z,9.59
2023-02-22T21:36:26.946Z,9.57
2023-02-22T21:38:59.054Z,9.55
2023-02-22T21:41:29.083Z,9.54
2023-02-22T21:43:57.626Z,9.53
2023-02-22T21:46:26.021Z,9.49
2023-02-22T21:48:52.556Z,9.48
2023-02-22T21:51:25.388Z,9.47
2023-02-22T21:53:54.403Z,9.46
2023-02-22T21:56:27.303Z,9.46
2023-02-22T21:59:04.833Z,9.44
2023-02-22T22:01:34.767Z,9.44
2023-02-22T22:04:02.471Z,9.43
2023-02-22T22:06:31.332Z,9.43
2023-02-22T22:08:59.944Z,9.42
2023-02-22T22:11:26.517Z,9.42
2023-02-22T22:13:57.588Z,9.40
2023-02-22T22:16:27.179Z,9.39
2023-02-22T22:18:55.007Z,9.37
2023-02-22T22:21:23.093Z,9.36
2023-02-22T22:23:54.335Z,9.35
2023-02-22T22:26:24.465Z,9.35
2023-02-22T22:28:55.904Z,9.35
2023-02-22T22:31:24.018Z,9.35
2023-02-22T22:33:50.794Z,9.35
2023-02-22T22:36:19.094Z,9.35
2023-02-22T22:38:48.454Z,9.35
2023-02-22T22:41:17.692Z,9.33
2023-02-22T22:43:48.152Z,9.30
2023-02-22T22:46:17.265Z,9.29
2023-02-22T22:48:46.918Z,9.29
2023-02-22T22:51:20.056Z,9.27
2023-02-22T22:53:48.531Z,9.27
2023-02-22T22:56:25.904Z,9.27
2023-02-22T22:58:57.626Z,9.27
2023-02-22T23:01:33.738Z,9.25
2023-02-22T23:04:06.345Z,9.26
2023-02-22T23:06:41.786Z,9.27
2023-02-22T23:09:21.759Z,9.26
2023-02-22T23:11:55.057Z,9.26
2023-02-22T23:14:24.361Z,9.26
2023-02-22T23:16:53.507Z,9.24
2023-02-22T23:19:20.375Z,9.24
2023-02-22T23:21:49.562Z,9.22
2023-02-22T23:24:19.230Z,9.22
2023-02-22T23:26:49.059Z,9.22
2023-02-22T23:29:17.497Z,9.23
2023-02-22T23:31:44.170Z,9.22
2023-02-22T23:34:13.932Z,9.22
2023-02-22T23:36:49.642Z,9.23
2023-02-22T23:39:20.619Z,9.21
2023-02-22T23:41:54.360Z,9.21
2023-02-22T23:44:21.976Z,9.22
2023-02-22T23:46:49.620Z,9.23
2023-02-22T23:49:20.332Z,9.24
2023-02-22T23:51:48.027Z,9.23
2023-02-22T23:54:19.264Z,9.22
2023-02-22T23:57:02.369Z,9.22
2023-02-22T23:59:30.543Z,9.21
